createdAt,value
2018-07-01T00:01:24.630Z,0.50
2018-07-01T00:03:53.951Z,0.50
2018-07-01T00:06:23.280Z,0.50
2018-07-01T00:08:52.867Z,0.53
2018-07-01T00:11:22.419Z,0.50
2018-07-01T00:13:52.082Z,0.70
2018-07-01T00:16:21.903Z,0.80
2018-07-01T00:18:51.687Z,0.70
2018-07-01T00:21:21.751Z,0.60
2018-07-01T00:23:51.219Z,0.50
2018-07-01T00:26:20.909Z,0.60
2018-07-01T00:28:50.703Z,0.87
2018-07-01T00:31:20.517Z,0.67
2018-07-01T00:33:50.329Z,0.60
2018-07-01T00:36:20.153Z,0.90
2018-07-01T00:38:49.726Z,0.53
2018-07-01T00:41:19.059Z,0.63
2018-07-01T00:43:48.663Z,0.43
2018-07-01T00:46:18.671Z,0.60
2018-07-01T00:48:48.472Z,0.73
2018-07-01T00:51:17.984Z,0.70
2018-07-01T00:53:47.559Z,0.60
2018-07-01T00:56:17.791Z,0.70
2018-07-01T00:58:47.621Z,0.60
2018-07-01T01:01:17.127Z,0.73
2018-07-01T01:03:46.459Z,0.63
2018-07-01T01:06:15.758Z,0.60
2018-07-01T01:08:46.330Z,0.73
2018-07-01T01:11:15.922Z,0.60
2018-07-01T01:13:45.572Z,0.63
2018-07-01T01:16:15.273Z,0.90
2018-07-01T01:18:44.740Z,0.90
2018-07-01T01:21:14.060Z,0.70
2018-07-01T01:23:43.495Z,0.90
2018-07-01T01:26:13.896Z,0.70
2018-07-01T01:28:43.447Z,0.70
2018-07-01T01:31:12.966Z,0.83
2018-07-01T01:33:42.370Z,0.80
2018-07-01T01:36:11.750Z,0.77
2018-07-01T01:38:42.342Z,0.80
2018-07-01T01:42:16.069Z,0.50
2018-07-01T01:44:50.004Z,0.73
2018-07-01T01:47:41.645Z,0.80
2018-07-01T01:50:19.593Z,0.90
2018-07-01T01:53:09.331Z,0.67
2018-07-01T01:55:46.174Z,0.90
2018-07-01T01:58:19.538Z,0.70
2018-07-01T02:00:56.151Z,0.90
2018-07-01T02:03:30.418Z,0.57
2018-07-01T02:06:08.321Z,0.87
2018-07-01T02:08:41.805Z,0.77
2018-07-01T02:11:11.592Z,0.90
2018-07-01T02:13:43.936Z,0.70
2018-07-01T02:16:20.789Z,0.77
2018-07-01T02:18:50.586Z,0.80
2018-07-01T02:21:21.068Z,0.77
2018-07-01T02:23:53.264Z,0.73
2018-07-01T02:26:22.613Z,0.70
2018-07-01T02:28:51.908Z,1.07
2018-07-01T02:31:21.504Z,1.50
2018-07-01T02:33:50.997Z,1.00
2018-07-01T02:36:20.272Z,0.90
2018-07-01T02:38:49.601Z,1.00
2018-07-01T02:41:19.292Z,0.80
2018-07-01T02:43:48.839Z,0.80
2018-07-01T02:46:18.122Z,0.87
2018-07-01T02:48:47.424Z,0.83
2018-07-01T02:51:16.732Z,0.80
2018-07-01T02:53:46.357Z,0.70
2018-07-01T02:56:16.085Z,0.70
2018-07-01T02:58:45.800Z,0.93
2018-07-01T03:01:15.425Z,1.13
2018-07-01T03:03:44.968Z,1.07
2018-07-01T03:06:14.338Z,0.80
2018-07-01T03:08:43.938Z,0.73
2018-07-01T03:11:13.596Z,0.93
2018-07-01T03:13:43.047Z,0.80
2018-07-01T03:16:12.373Z,0.70
2018-07-01T03:18:41.640Z,0.80
2018-07-01T03:21:10.942Z,0.70
2018-07-01T03:23:40.520Z,0.80
2018-07-01T03:26:11.366Z,0.83
2018-07-01T03:28:41.304Z,0.90
2018-07-01T03:31:10.798Z,1.20
2018-07-01T03:33:40.408Z,0.93
2018-07-01T03:36:09.926Z,0.80
2018-07-01T03:38:39.495Z,0.80
2018-07-01T03:41:08.958Z,0.90
2018-07-01T03:43:38.372Z,0.97
2018-07-01T03:46:07.755Z,1.00
2018-07-01T03:48:37.756Z,1.00
2018-07-01T03:51:07.221Z,1.57
2018-07-01T03:53:36.506Z,0.70
2018-07-01T03:56:06.255Z,0.70
2018-07-01T03:58:35.972Z,0.70
2018-07-01T04:01:05.847Z,0.93
2018-07-01T04:03:35.384Z,0.80
2018-07-01T04:06:05.409Z,0.87
2018-07-01T04:08:35.242Z,0.80
2018-07-01T04:11:04.772Z,0.67
2018-07-01T04:13:34.063Z,0.70
2018-07-01T04:16:03.926Z,0.70
2018-07-01T04:18:33.686Z,0.80
2018-07-01T04:21:03.714Z,1.03
2018-07-01T04:23:33.216Z,0.90
2018-07-01T04:26:02.858Z,0.70
2018-07-01T04:28:32.334Z,1.00
2018-07-01T04:31:02.028Z,1.00
2018-07-01T04:33:31.478Z,1.07
2018-07-01T04:36:01.077Z,0.80
2018-07-01T04:38:30.610Z,0.60
2018-07-01T04:40:59.908Z,0.70
2018-07-01T04:43:29.242Z,1.03
2018-07-01T04:45:58.622Z,0.67
2018-07-01T04:48:27.906Z,0.90
2018-07-01T04:50:57.190Z,0.60
2018-07-01T04:53:26.512Z,0.60
2018-07-01T04:55:56.184Z,0.70
2018-07-01T04:58:25.705Z,0.80
2018-07-01T05:00:54.960Z,0.87
2018-07-01T05:03:24.879Z,0.67
2018-07-01T05:05:54.548Z,0.73
2018-07-01T05:08:24.346Z,0.70
2018-07-01T05:10:54.240Z,0.67
2018-07-01T05:13:23.738Z,0.60
2018-07-01T05:15:53.331Z,0.87
2018-07-01T05:18:23.098Z,0.80
2018-07-01T05:20:52.622Z,0.70
2018-07-01T05:23:21.915Z,0.67
2018-07-01T05:25:51.299Z,0.60
2018-07-01T05:28:20.884Z,0.70
2018-07-01T05:30:50.765Z,1.00
2018-07-01T05:33:20.232Z,0.70
2018-07-01T05:35:49.680Z,0.90
2018-07-01T05:38:18.984Z,0.87
2018-07-01T05:40:48.324Z,0.77
2018-07-01T05:43:17.785Z,0.60
2018-07-01T05:45:47.990Z,0.50
2018-07-01T05:48:17.527Z,0.67
2018-07-01T05:50:46.956Z,0.60
2018-07-01T05:53:16.250Z,0.57
2018-07-01T05:55:45.682Z,0.90
2018-07-01T05:58:14.927Z,1.10
2018-07-01T06:00:44.534Z,0.70
2018-07-01T06:03:14.078Z,0.40
2018-07-01T06:05:43.745Z,0.60
2018-07-01T06:08:13.248Z,0.70
2018-07-01T06:10:43.820Z,0.70
2018-07-01T06:13:14.212Z,0.57
2018-07-01T06:15:44.058Z,0.53
2018-07-01T06:18:13.966Z,0.70
2018-07-01T06:20:43.560Z,0.60
2018-07-01T06:23:12.979Z,0.60
2018-07-01T06:25:42.434Z,0.73
2018-07-01T06:28:11.869Z,0.60
2018-07-01T06:30:41.472Z,0.50
2018-07-01T06:33:11.865Z,0.60
2018-07-01T06:35:42.817Z,0.60
2018-07-01T06:38:12.533Z,0.70
2018-07-01T06:40:41.963Z,0.60
2018-07-01T06:43:11.672Z,0.50
2018-07-01T06:45:41.902Z,0.70
2018-07-01T06:48:13.044Z,0.60
2018-07-01T06:50:42.418Z,0.60
2018-07-01T06:53:11.780Z,0.50
2018-07-01T06:55:41.436Z,0.53
2018-07-01T06:58:11.424Z,0.67
2018-07-01T07:00:41.414Z,0.40
2018-07-01T07:03:11.178Z,0.50
2018-07-01T07:05:41.346Z,0.40
2018-07-01T07:08:10.692Z,0.43
2018-07-01T07:10:40.046Z,0.53
2018-07-01T07:13:09.954Z,0.40
2018-07-01T07:15:39.788Z,0.43
2018-07-01T07:18:09.819Z,0.50
2018-07-01T07:20:39.678Z,0.40
2018-07-01T07:23:09.456Z,0.40
2018-07-01T07:25:39.112Z,0.40
2018-07-01T07:28:10.483Z,0.40
2018-07-01T07:30:39.878Z,0.40
2018-07-01T07:33:09.875Z,0.30
2018-07-01T07:35:39.348Z,0.33
2018-07-01T07:38:09.444Z,0.40
2018-07-01T07:40:39.416Z,0.50
2018-07-01T07:43:08.795Z,0.40
2018-07-01T07:45:38.236Z,0.50
2018-07-01T07:48:08.151Z,0.40
2018-07-01T07:50:38.057Z,0.93
2018-07-01T07:53:07.663Z,0.40
2018-07-01T07:55:37.372Z,0.30
2018-07-01T07:58:06.959Z,0.60
2018-07-01T08:00:36.401Z,0.30
2018-07-01T08:03:05.765Z,0.50
2018-07-01T08:05:35.783Z,0.50
2018-07-01T08:08:05.592Z,0.37
2018-07-01T08:10:34.918Z,0.50
2018-07-01T08:13:04.414Z,0.43
2018-07-01T08:15:34.001Z,0.40
2018-07-01T08:18:03.928Z,0.40
2018-07-01T08:20:34.495Z,0.40
2018-07-01T08:23:04.341Z,0.40
2018-07-01T08:25:34.301Z,0.50
2018-07-01T08:28:04.703Z,0.47
2018-07-01T08:30:34.012Z,0.40
2018-07-01T08:33:03.413Z,0.37
2018-07-01T08:35:32.813Z,0.40
2018-07-01T08:38:03.612Z,0.50
2018-07-01T08:40:33.094Z,0.50
2018-07-01T08:43:03.377Z,0.50
2018-07-01T08:45:33.245Z,0.50
2018-07-01T08:48:02.906Z,0.50
2018-07-01T08:50:32.455Z,0.40
2018-07-01T08:53:02.109Z,0.50
2018-07-01T08:55:31.726Z,0.37
2018-07-01T08:58:01.206Z,0.50
2018-07-01T09:00:31.258Z,0.50
2018-07-01T09:03:01.262Z,0.40
2018-07-01T09:05:31.725Z,0.50
2018-07-01T09:08:02.502Z,0.40
2018-07-01T09:10:32.114Z,0.40
2018-07-01T09:13:01.809Z,0.40
2018-07-01T09:15:31.315Z,0.50
2018-07-01T09:18:01.147Z,0.40
2018-07-01T09:20:31.008Z,0.50
2018-07-01T09:23:00.767Z,0.50
2018-07-01T09:25:30.148Z,0.40
2018-07-01T09:27:59.648Z,0.50
2018-07-01T09:30:30.199Z,0.50
2018-07-01T09:33:00.112Z,0.50
2018-07-01T09:35:29.962Z,0.50
2018-07-01T09:37:59.957Z,0.43
2018-07-01T09:40:29.582Z,0.50
2018-07-01T09:42:59.448Z,0.50
2018-07-01T09:45:29.459Z,0.60
2018-07-01T09:47:59.184Z,0.40
2018-07-01T09:50:30.096Z,0.50
2018-07-01T09:52:59.996Z,0.30
2018-07-01T09:55:29.670Z,0.40
2018-07-01T09:57:59.316Z,0.40
2018-07-01T10:00:29.009Z,0.40
2018-07-01T10:02:58.664Z,0.40
2018-07-01T10:05:28.450Z,0.40
2018-07-01T10:07:58.646Z,0.33
2018-07-01T10:10:28.252Z,0.30
2018-07-01T10:12:58.210Z,0.30
2018-07-01T10:15:27.804Z,0.60
2018-07-01T10:17:57.738Z,0.60
2018-07-01T10:20:27.379Z,0.50
2018-07-01T10:22:56.834Z,0.30
2018-07-01T10:25:26.284Z,0.40
2018-07-01T10:27:55.976Z,0.70
2018-07-01T10:30:25.644Z,0.37
2018-07-01T10:32:56.399Z,0.40
2018-07-01T10:35:26.299Z,0.60
2018-07-01T10:37:55.954Z,0.50
2018-07-01T10:40:25.580Z,0.50
2018-07-01T10:42:55.573Z,0.60
2018-07-01T10:45:25.608Z,0.47
2018-07-01T10:47:56.871Z,0.40
2018-07-01T10:50:26.612Z,0.50
2018-07-01T10:52:56.384Z,0.40
2018-07-01T10:55:25.925Z,0.50
2018-07-01T10:57:55.618Z,0.47
2018-07-01T11:00:25.351Z,0.60
2018-07-01T11:02:56.203Z,0.40
2018-07-01T11:05:26.152Z,0.60
2018-07-01T11:07:56.130Z,0.40
2018-07-01T11:10:25.797Z,0.50
2018-07-01T11:12:55.807Z,0.53
2018-07-01T11:15:25.590Z,0.50
2018-07-01T11:17:55.426Z,0.50
2018-07-01T11:20:25.020Z,0.47
2018-07-01T11:22:54.517Z,0.40
2018-07-01T11:25:24.102Z,0.40
2018-07-01T11:27:53.897Z,0.50
2018-07-01T11:30:23.393Z,0.47
2018-07-01T11:32:52.687Z,0.40
2018-07-01T11:35:22.282Z,0.50
2018-07-01T11:37:51.761Z,0.40
2018-07-01T11:40:21.330Z,0.60
2018-07-01T11:42:50.809Z,0.50
2018-07-01T11:45:20.151Z,0.50
2018-07-01T11:47:49.455Z,0.50
2018-07-01T11:50:18.774Z,0.40
2018-07-01T11:52:48.321Z,0.40
2018-07-01T11:55:17.832Z,0.40
2018-07-01T11:57:47.112Z,0.40
2018-07-01T12:00:16.509Z,0.50
2018-07-01T12:02:46.098Z,0.43
2018-07-01T12:05:17.094Z,0.50
2018-07-01T12:07:45.154Z,0.40
2018-07-01T12:10:14.683Z,0.50
2018-07-01T12:12:44.236Z,0.40
2018-07-01T12:15:13.742Z,0.50
2018-07-01T12:17:43.014Z,0.50
2018-07-01T12:20:12.541Z,0.40
2018-07-01T12:22:41.846Z,0.50
2018-07-01T12:25:11.180Z,0.50
2018-07-01T12:27:40.410Z,0.57
2018-07-01T12:30:10.740Z,0.33
2018-07-01T12:32:40.547Z,0.40
2018-07-01T12:35:11.320Z,0.47
2018-07-01T12:37:41.260Z,0.40
2018-07-01T12:40:10.535Z,0.33
2018-07-01T12:42:39.815Z,0.50
2018-07-01T12:45:09.397Z,0.70
2018-07-01T12:47:38.909Z,0.30
2018-07-01T12:50:08.605Z,0.40
2018-07-01T12:52:38.182Z,0.50
2018-07-01T12:55:07.468Z,0.40
2018-07-01T12:57:36.769Z,0.30
2018-07-01T13:00:06.476Z,0.40
2018-07-01T13:02:36.043Z,0.57
2018-07-01T13:05:05.938Z,0.30
2018-07-01T13:07:35.807Z,0.40
2018-07-01T13:10:05.457Z,0.37
2018-07-01T13:12:35.066Z,0.50
2018-07-01T13:15:05.444Z,0.40
2018-07-01T13:17:35.960Z,0.57
2018-07-01T13:20:05.641Z,0.53
2018-07-01T13:22:35.025Z,0.40
2018-07-01T13:25:04.907Z,0.33
2018-07-01T13:27:34.718Z,0.30
2018-07-01T13:30:05.194Z,0.30
2018-07-01T13:32:34.703Z,0.40
2018-07-01T13:35:04.361Z,0.40
2018-07-01T13:37:33.967Z,0.40
2018-07-01T13:40:03.206Z,0.40
2018-07-01T13:42:32.837Z,0.43
2018-07-01T13:45:02.670Z,0.40
2018-07-01T13:47:33.860Z,0.50
2018-07-01T13:50:03.217Z,0.40
2018-07-01T13:52:32.736Z,0.50
2018-07-01T13:55:02.553Z,0.30
2018-07-01T13:57:31.819Z,0.50
2018-07-01T14:00:01.443Z,0.30
2018-07-01T14:02:30.979Z,0.40
2018-07-01T14:05:00.571Z,0.40
2018-07-01T14:07:30.107Z,0.30
2018-07-01T14:09:59.639Z,0.30
2018-07-01T14:12:29.152Z,0.33
2018-07-01T14:14:58.463Z,0.70
2018-07-01T14:17:27.813Z,0.50
2018-07-01T14:19:57.077Z,0.50
2018-07-01T14:22:26.375Z,0.30
2018-07-01T14:24:55.962Z,0.40
2018-07-01T14:27:25.772Z,0.40
2018-07-01T14:29:55.244Z,0.40
2018-07-01T14:32:24.913Z,0.40
2018-07-01T14:34:54.682Z,0.50
2018-07-01T14:37:24.647Z,0.50
2018-07-01T14:39:54.124Z,0.40
2018-07-01T14:42:23.427Z,0.40
2018-07-01T14:44:53.054Z,0.50
2018-07-01T14:47:22.554Z,0.40
2018-07-01T14:49:51.845Z,0.47
2018-07-01T14:52:21.353Z,0.40
2018-07-01T14:54:50.630Z,0.30
2018-07-01T14:57:20.061Z,0.40
2018-07-01T14:59:49.408Z,0.40
2018-07-01T15:02:19.017Z,0.40
2018-07-01T15:04:48.983Z,0.40
2018-07-01T15:07:18.833Z,0.40
2018-07-01T15:09:48.650Z,0.77
2018-07-01T15:12:18.155Z,0.87
2018-07-01T15:14:47.722Z,0.80
2018-07-01T15:17:17.225Z,0.40
2018-07-01T15:19:46.797Z,0.60
2018-07-01T15:22:16.606Z,0.50
2018-07-01T15:24:46.409Z,0.50
2018-07-01T15:27:15.908Z,0.47
2018-07-01T15:29:45.207Z,0.50
2018-07-01T15:32:14.527Z,0.50
2018-07-01T15:34:43.828Z,0.40
2018-07-01T15:37:13.448Z,0.47
2018-07-01T15:39:42.956Z,0.50
2018-07-01T15:42:12.611Z,0.30
2018-07-01T15:44:42.406Z,1.33
2018-07-01T15:47:11.921Z,0.50
2018-07-01T15:49:41.486Z,0.40
2018-07-01T15:52:10.988Z,0.40
2018-07-01T15:54:40.495Z,0.40
2018-07-01T15:57:10.432Z,0.50
2018-07-01T15:59:39.818Z,0.40
2018-07-01T16:02:10.143Z,0.40
2018-07-01T16:04:39.429Z,0.50
2018-07-01T16:07:08.758Z,0.43
2018-07-01T16:09:38.063Z,0.37
2018-07-01T16:12:07.327Z,0.40
2018-07-01T16:14:36.653Z,0.40
2018-07-01T16:17:05.929Z,0.50
2018-07-01T16:19:35.293Z,0.40
2018-07-01T16:22:04.593Z,0.43
2018-07-01T16:24:38.211Z,0.50
2018-07-01T16:27:13.095Z,0.33
2018-07-01T16:29:42.604Z,0.40
2018-07-01T16:32:12.258Z,0.40
2018-07-01T16:34:41.745Z,0.60
2018-07-01T16:37:11.042Z,0.43
2018-07-01T16:39:40.319Z,0.40
2018-07-01T16:42:09.899Z,0.60
2018-07-01T16:44:39.722Z,0.30
2018-07-01T16:47:09.185Z,0.40
2018-07-01T16:49:38.831Z,0.70
2018-07-01T16:52:08.953Z,0.53
2018-07-01T16:54:38.471Z,0.50
2018-07-01T16:57:07.779Z,0.47
2018-07-01T16:59:37.117Z,0.40
2018-07-01T17:02:06.431Z,0.43
2018-07-01T17:04:35.781Z,0.53
2018-07-01T17:07:05.152Z,0.40
2018-07-01T17:09:35.877Z,0.40
2018-07-01T17:12:05.325Z,0.43
2018-07-01T17:14:34.957Z,0.40
2018-07-01T17:17:04.470Z,0.70
2018-07-01T17:19:33.798Z,0.57
2018-07-01T17:22:03.088Z,0.50
2018-07-01T17:24:32.431Z,0.43
2018-07-01T17:27:01.986Z,0.50
2018-07-01T17:29:31.473Z,1.03
2018-07-01T17:32:06.098Z,0.70
2018-07-01T17:34:35.395Z,0.50
2018-07-01T17:37:04.805Z,0.60
2018-07-01T17:39:34.095Z,0.60
2018-07-01T17:42:03.392Z,0.53
2018-07-01T17:44:33.100Z,0.60
2018-07-01T17:47:02.577Z,0.43
2018-07-01T17:49:32.316Z,0.70
2018-07-01T17:52:01.808Z,0.60
2018-07-01T17:54:31.415Z,0.60
2018-07-01T17:57:00.955Z,0.60
2018-07-01T17:59:30.539Z,0.70
2018-07-01T18:02:00.208Z,0.67
2018-07-01T18:04:29.485Z,0.80
2018-07-01T18:06:58.745Z,0.60
2018-07-01T18:09:28.344Z,0.60
2018-07-01T18:11:58.525Z,0.90
2018-07-01T18:14:28.307Z,0.70
2018-07-01T18:16:58.117Z,0.90
2018-07-01T18:19:27.627Z,0.70
2018-07-01T18:22:16.930Z,0.63
2018-07-01T18:24:48.924Z,0.80
2018-07-01T18:26:55.719Z,0.50
2018-07-01T18:29:25.105Z,0.70
2018-07-01T18:31:54.395Z,0.80
2018-07-01T18:34:24.042Z,0.50
2018-07-01T18:36:53.497Z,0.60
2018-07-01T18:39:23.079Z,0.50
2018-07-01T18:41:52.498Z,0.50
2018-07-01T18:44:21.781Z,0.50
2018-07-01T18:46:51.119Z,0.60
2018-07-01T18:49:20.685Z,1.23
2018-07-01T18:51:50.182Z,0.57
2018-07-01T18:54:19.459Z,0.43
2018-07-01T18:56:48.815Z,0.50
2018-07-01T18:59:18.495Z,0.67
2018-07-01T19:01:48.609Z,0.60
2018-07-01T19:04:17.926Z,0.40
2018-07-01T19:06:47.231Z,0.40
2018-07-01T19:09:16.495Z,0.40
2018-07-01T19:11:46.141Z,0.37
2018-07-01T19:14:16.016Z,0.50
2018-07-01T19:16:45.605Z,0.50
2018-07-01T19:19:14.972Z,0.60
2018-07-01T19:21:44.272Z,0.50
2018-07-01T19:24:13.565Z,0.60
2018-07-01T19:26:42.866Z,0.60
2018-07-01T19:29:12.617Z,0.50
2018-07-01T19:31:44.955Z,0.60
2018-07-01T19:34:15.270Z,0.40
2018-07-01T19:36:45.180Z,0.50
2018-07-01T19:39:14.644Z,0.43
2018-07-01T19:41:44.093Z,0.50
2018-07-01T19:44:13.671Z,0.73
2018-07-01T19:46:43.207Z,0.60
2018-07-01T19:49:12.793Z,0.50
2018-07-01T19:51:42.713Z,0.50
2018-07-01T19:54:12.668Z,0.53
2018-07-01T19:56:42.506Z,0.60
2018-07-01T19:59:12.006Z,0.40
2018-07-01T20:01:41.602Z,0.40
2018-07-01T20:04:11.111Z,0.40
2018-07-01T20:06:40.725Z,0.53
2018-07-01T20:09:11.381Z,0.50
2018-07-01T20:11:40.756Z,0.50
2018-07-01T20:14:10.028Z,0.53
2018-07-01T20:16:39.646Z,0.30
2018-07-01T20:19:09.504Z,0.47
2018-07-01T20:21:39.291Z,0.37
2018-07-01T20:24:09.151Z,0.60
2018-07-01T20:26:38.432Z,0.50
2018-07-01T20:29:07.975Z,0.80
2018-07-01T20:31:37.527Z,0.40
2018-07-01T20:34:06.813Z,0.50
2018-07-01T20:36:36.079Z,0.60
2018-07-01T20:39:09.331Z,0.50
2018-07-01T20:41:39.369Z,0.40
2018-07-01T20:44:08.993Z,0.60
2018-07-01T20:46:38.279Z,0.70
2018-07-01T20:49:07.567Z,0.40
2018-07-01T20:51:36.881Z,0.37
2018-07-01T20:54:06.313Z,0.40
2018-07-01T20:56:35.593Z,0.50
2018-07-01T20:59:04.887Z,0.60
2018-07-01T21:01:34.603Z,0.50
2018-07-01T21:04:04.125Z,0.40
2018-07-01T21:06:33.487Z,0.63
2018-07-01T21:09:02.880Z,0.40
2018-07-01T21:11:32.519Z,0.40
2018-07-01T21:14:02.028Z,0.43
2018-07-01T21:16:31.360Z,0.70
2018-07-01T21:19:00.651Z,0.57
2018-07-01T21:21:30.341Z,0.50
2018-07-01T21:23:59.741Z,0.50
2018-07-01T21:26:28.957Z,0.40
2018-07-01T21:28:58.448Z,0.60
2018-07-01T21:31:27.889Z,0.40
2018-07-01T21:33:57.135Z,0.60
2018-07-01T21:36:26.338Z,0.50
2018-07-01T21:38:55.521Z,0.80
2018-07-01T21:41:24.693Z,0.50
2018-07-01T21:43:53.879Z,0.50
2018-07-01T21:46:23.133Z,0.50
2018-07-01T21:48:52.605Z,0.50
2018-07-01T21:51:22.031Z,0.60
2018-07-01T21:53:51.253Z,0.40
2018-07-01T21:56:20.727Z,0.50
2018-07-01T21:58:50.125Z,0.50
2018-07-01T22:01:19.483Z,0.50
2018-07-01T22:03:48.937Z,0.47
2018-07-01T22:06:18.694Z,0.50
2018-07-01T22:08:48.139Z,0.47
2018-07-01T22:11:49.075Z,0.40
2018-07-01T22:14:23.969Z,0.40
2018-07-01T22:16:53.461Z,0.60
2018-07-01T22:19:22.735Z,0.50
2018-07-01T22:21:53.087Z,0.57
2018-07-01T22:24:24.823Z,0.60
2018-07-01T22:26:54.291Z,0.50
2018-07-01T22:29:23.542Z,0.47
2018-07-01T22:31:52.951Z,0.50
2018-07-01T22:34:22.824Z,0.50
2018-07-01T22:36:52.595Z,0.47
2018-07-01T22:39:24.167Z,0.53
2018-07-01T22:41:54.488Z,0.43
2018-07-01T22:44:23.705Z,0.60
2018-07-01T22:46:53.503Z,0.40
2018-07-01T22:49:23.056Z,0.40
2018-07-01T22:51:52.702Z,0.50
2018-07-01T22:54:22.383Z,0.50
2018-07-01T22:56:51.826Z,0.50
2018-07-01T22:59:21.291Z,0.47
2018-07-01T23:01:58.064Z,0.40
2018-07-01T23:04:27.254Z,0.40
2018-07-01T23:06:56.717Z,0.43
2018-07-01T23:09:26.359Z,0.53
2018-07-01T23:11:55.776Z,0.40
2018-07-01T23:14:25.215Z,0.40
2018-07-01T23:16:54.461Z,0.50
2018-07-01T23:19:23.633Z,0.43
2018-07-01T23:21:53.061Z,0.40
2018-07-01T23:24:22.763Z,0.70
2018-07-01T23:26:55.451Z,0.50
2018-07-01T23:29:24.851Z,0.60
2018-07-01T23:31:54.049Z,0.60
2018-07-01T23:34:23.498Z,0.57
2018-07-01T23:36:53.187Z,0.53
2018-07-01T23:39:22.417Z,0.63
2018-07-01T23:41:51.770Z,0.50
2018-07-01T23:44:21.251Z,0.40
2018-07-01T23:46:50.657Z,0.60
2018-07-01T23:49:19.879Z,0.70
2018-07-01T23:51:49.429Z,0.60
2018-07-01T23:54:18.606Z,0.53
2018-07-01T23:56:47.809Z,0.50
2018-07-01T23:59:17.249Z,0.70
